sensor_id;sensor_type;location;lat;lon;timestamp;temperature;humidity
10133;DHT22;5106;50.926;7.080;2024-02-21T00:01:50;9.00;96.50
10133;DHT22;5106;50.926;7.080;2024-02-21T00:04:15;9.10;96.50
10133;DHT22;5106;50.926;7.080;2024-02-21T00:06:41;9.10;96.50
10133;DHT22;5106;50.926;7.080;2024-02-21T00:09:07;9.10;96.50
10133;DHT22;5106;50.926;7.080;2024-02-21T00:11:35;9.10;96.50
10133;DHT22;5106;50.926;7.080;2024-02-21T00:14:00;9.10;96.50
10133;DHT22;5106;50.926;7.080;2024-02-21T00:16:26;9.10;96.50
10133;DHT22;5106;50.926;7.080;2024-02-21T00:18:52;9.10;96.50
10133;DHT22;5106;50.926;7.080;2024-02-21T00:21:17;9.10;96.50
10133;DHT22;5106;50.926;7.080;2024-02-21T00:23:44;9.10;96.50
10133;DHT22;5106;50.926;7.080;2024-02-21T00:26:14;9.10;96.50
10133;DHT22;5106;50.926;7.080;2024-02-21T00:28:40;9.10;96.50
10133;DHT22;5106;50.926;7.080;2024-02-21T00:31:05;9.10;96.50
10133;DHT22;5106;50.926;7.080;2024-02-21T00:33:31;9.10;96.50
10133;DHT22;5106;50.926;7.080;2024-02-21T00:35:56;9.10;96.50
10133;DHT22;5106;50.926;7.080;2024-02-21T00:38:22;9.20;96.50
10133;DHT22;5106;50.926;7.080;2024-02-21T00:40:48;9.20;96.50
10133;DHT22;5106;50.926;7.080;2024-02-21T00:43:13;9.20;96.50
10133;DHT22;5106;50.926;7.080;2024-02-21T00:45:39;9.20;96.50
10133;DHT22;5106;50.926;7.080;2024-02-21T00:48:05;9.20;96.50
10133;DHT22;5106;50.926;7.080;2024-02-21T00:50:30;9.20;96.50
10133;DHT22;5106;50.926;7.080;2024-02-21T00:52:56;9.10;96.50
10133;DHT22;5106;50.926;7.080;2024-02-21T00:55:22;9.20;96.50
10133;DHT22;5106;50.926;7.080;2024-02-21T00:57:47;9.10;96.50
10133;DHT22;5106;50.926;7.080;2024-02-21T01:00:13;9.10;96.50
10133;DHT22;5106;50.926;7.080;2024-02-21T01:02:39;9.10;96.50
10133;DHT22;5106;50.926;7.080;2024-02-21T01:05:05;9.10;96.50
10133;DHT22;5106;50.926;7.080;2024-02-21T01:07:30;9.10;96.50
10133;DHT22;5106;50.926;7.080;2024-02-21T01:09:56;9.10;96.50
10133;DHT22;5106;50.926;7.080;2024-02-21T01:12:22;9.00;96.50
10133;DHT22;5106;50.926;7.080;2024-02-21T01:14:47;9.00;96.50
10133;DHT22;5106;50.926;7.080;2024-02-21T01:17:14;9.00;96.50
10133;DHT22;5106;50.926;7.080;2024-02-21T01:19:40;9.00;96.50
10133;DHT22;5106;50.926;7.080;2024-02-21T01:22:05;9.00;96.50
10133;DHT22;5106;50.926;7.080;2024-02-21T01:24:31;9.00;96.50
10133;DHT22;5106;50.926;7.080;2024-02-21T01:26:56;9.00;96.50
10133;DHT22;5106;50.926;7.080;2024-02-21T01:29:22;9.00;96.50
10133;DHT22;5106;50.926;7.080;2024-02-21T01:31:48;8.90;96.50
10133;DHT22;5106;50.926;7.080;2024-02-21T01:34:13;8.90;96.50
10133;DHT22;5106;50.926;7.080;2024-02-21T01:36:39;9.00;96.50
10133;DHT22;5106;50.926;7.080;2024-02-21T01:39:05;8.90;96.50
10133;DHT22;5106;50.926;7.080;2024-02-21T01:41:31;8.90;96.50
10133;DHT22;5106;50.926;7.080;2024-02-21T01:43:57;8.90;96.50
10133;DHT22;5106;50.926;7.080;2024-02-21T01:46:23;8.90;96.50
10133;DHT22;5106;50.926;7.080;2024-02-21T01:48:54;8.90;96.50
10133;DHT22;5106;50.926;7.080;2024-02-21T01:51:19;8.90;96.50
10133;DHT22;5106;50.926;7.080;2024-02-21T01:53:46;8.90;96.50
10133;DHT22;5106;50.926;7.080;2024-02-21T01:56:12;8.90;96.50
10133;DHT22;5106;50.926;7.080;2024-02-21T01:58:40;9.00;96.50
10133;DHT22;5106;50.926;7.080;2024-02-21T02:01:07;9.00;96.50
10133;DHT22;5106;50.926;7.080;2024-02-21T02:03:33;9.00;96.50
10133;DHT22;5106;50.926;7.080;2024-02-21T02:05:59;9.00;96.50
10133;DHT22;5106;50.926;7.080;2024-02-21T02:08:25;9.00;96.50
10133;DHT22;5106;50.926;7.080;2024-02-21T02:10:52;8.90;96.50
10133;DHT22;5106;50.926;7.080;2024-02-21T02:13:17;8.90;96.50
10133;DHT22;5106;50.926;7.080;2024-02-21T02:15:50;8.90;96.50
10133;DHT22;5106;50.926;7.080;2024-02-21T02:18:17;8.90;96.50
10133;DHT22;5106;50.926;7.080;2024-02-21T02:20:44;8.90;96.50
10133;DHT22;5106;50.926;7.080;2024-02-21T02:23:12;8.90;96.50
10133;DHT22;5106;50.926;7.080;2024-02-21T02:25:40;8.90;96.50
10133;DHT22;5106;50.926;7.080;2024-02-21T02:28:08;8.80;96.50
10133;DHT22;5106;50.926;7.080;2024-02-21T02:30:35;8.90;96.50
10133;DHT22;5106;50.926;7.080;2024-02-21T02:33:02;8.90;96.50
10133;DHT22;5106;50.926;7.080;2024-02-21T02:35:28;8.80;96.50
10133;DHT22;5106;50.926;7.080;2024-02-21T02:37:53;8.80;96.50
10133;DHT22;5106;50.926;7.080;2024-02-21T02:40:19;8.80;96.50
10133;DHT22;5106;50.926;7.080;2024-02-21T02:42:45;8.80;96.50
10133;DHT22;5106;50.926;7.080;2024-02-21T02:45:11;8.80;96.50
10133;DHT22;5106;50.926;7.080;2024-02-21T02:47:36;8.80;96.50
10133;DHT22;5106;50.926;7.080;2024-02-21T02:50:02;8.80;96.50
10133;DHT22;5106;50.926;7.080;2024-02-21T02:52:28;8.80;96.50
10133;DHT22;5106;50.926;7.080;2024-02-21T02:54:53;8.80;96.50
10133;DHT22;5106;50.926;7.080;2024-02-21T02:57:21;8.80;96.50
10133;DHT22;5106;50.926;7.080;2024-02-21T02:59:48;8.80;96.50
10133;DHT22;5106;50.926;7.080;2024-02-21T03:02:14;8.80;96.50
10133;DHT22;5106;50.926;7.080;2024-02-21T03:04:40;8.80;96.50
10133;DHT22;5106;50.926;7.080;2024-02-21T03:07:06;8.80;96.50
10133;DHT22;5106;50.926;7.080;2024-02-21T03:09:31;8.70;96.50
10133;DHT22;5106;50.926;7.080;2024-02-21T03:11:57;8.80;96.50
10133;DHT22;5106;50.926;7.080;2024-02-21T03:14:28;8.80;96.50
10133;DHT22;5106;50.926;7.080;2024-02-21T03:16:54;8.70;96.50
10133;DHT22;5106;50.926;7.080;2024-02-21T03:19:20;8.70;96.50
10133;DHT22;5106;50.926;7.080;2024-02-21T03:21:45;8.70;96.50
10133;DHT22;5106;50.926;7.080;2024-02-21T03:24:11;8.80;96.50
10133;DHT22;5106;50.926;7.080;2024-02-21T03:26:36;8.70;96.50
10133;DHT22;5106;50.926;7.080;2024-02-21T03:29:03;8.70;96.50
10133;DHT22;5106;50.926;7.080;2024-02-21T03:31:29;8.70;96.50
10133;DHT22;5106;50.926;7.080;2024-02-21T03:33:54;8.70;96.50
10133;DHT22;5106;50.926;7.080;2024-02-21T03:36:20;8.70;96.50
10133;DHT22;5106;50.926;7.080;2024-02-21T03:38:45;8.70;96.50
10133;DHT22;5106;50.926;7.080;2024-02-21T03:41:11;8.70;96.50
10133;DHT22;5106;50.926;7.080;2024-02-21T03:43:38;8.70;96.50
10133;DHT22;5106;50.926;7.080;2024-02-21T03:46:04;8.70;96.50
10133;DHT22;5106;50.926;7.080;2024-02-21T03:48:29;8.70;96.50
10133;DHT22;5106;50.926;7.080;2024-02-21T03:50:55;8.70;96.50
10133;DHT22;5106;50.926;7.080;2024-02-21T03:53:21;8.70;96.50
10133;DHT22;5106;50.926;7.080;2024-02-21T03:55:46;8.70;96.50
10133;DHT22;5106;50.926;7.080;2024-02-21T03:58:12;8.70;96.50
10133;DHT22;5106;50.926;7.080;2024-02-21T04:00:37;8.70;96.50
10133;DHT22;5106;50.926;7.080;2024-02-21T04:03:04;8.70;96.50
10133;DHT22;5106;50.926;7.080;2024-02-21T04:05:30;8.70;96.50
10133;DHT22;5106;50.926;7.080;2024-02-21T04:07:55;8.70;96.50
10133;DHT22;5106;50.926;7.080;2024-02-21T04:10:21;8.70;96.50
10133;DHT22;5106;50.926;7.080;2024-02-21T04:12:46;8.70;96.50
10133;DHT22;5106;50.926;7.080;2024-02-21T04:15:12;8.70;96.50
10133;DHT22;5106;50.926;7.080;2024-02-21T04:17:38;8.70;96.50
10133;DHT22;5106;50.926;7.080;2024-02-21T04:20:04;8.70;96.50
10133;DHT22;5106;50.926;7.080;2024-02-21T04:22:31;8.70;96.50
10133;DHT22;5106;50.926;7.080;2024-02-21T04:24:59;8.70;96.50
10133;DHT22;5106;50.926;7.080;2024-02-21T04:27:25;8.70;96.50
10133;DHT22;5106;50.926;7.080;2024-02-21T04:29:51;8.70;96.50
10133;DHT22;5106;50.926;7.080;2024-02-21T04:32:16;8.70;96.50
10133;DHT22;5106;50.926;7.080;2024-02-21T04:34:42;8.70;96.50
10133;DHT22;5106;50.926;7.080;2024-02-21T04:37:07;8.60;96.50
10133;DHT22;5106;50.926;7.080;2024-02-21T04:39:33;8.60;96.50
10133;DHT22;5106;50.926;7.080;2024-02-21T04:41:58;8.60;96.50
10133;DHT22;5106;50.926;7.080;2024-02-21T04:44:24;8.60;96.50
10133;DHT22;5106;50.926;7.080;2024-02-21T04:46:49;8.60;96.50
10133;DHT22;5106;50.926;7.080;2024-02-21T04:49:15;8.60;96.50
10133;DHT22;5106;50.926;7.080;2024-02-21T04:51:41;8.60;96.50
10133;DHT22;5106;50.926;7.080;2024-02-21T04:54:06;8.60;96.50
10133;DHT22;5106;50.926;7.080;2024-02-21T04:56:32;8.60;96.50
10133;DHT22;5106;50.926;7.080;2024-02-21T04:58:58;8.60;96.50
10133;DHT22;5106;50.926;7.080;2024-02-21T05:01:23;8.60;96.50
10133;DHT22;5106;50.926;7.080;2024-02-21T05:03:49;8.60;96.50
10133;DHT22;5106;50.926;7.080;2024-02-21T05:06:14;8.60;96.50
10133;DHT22;5106;50.926;7.080;2024-02-21T05:08:40;8.60;96.50
10133;DHT22;5106;50.926;7.080;2024-02-21T05:11:06;8.60;96.50
10133;DHT22;5106;50.926;7.080;2024-02-21T05:13:32;8.60;96.50
10133;DHT22;5106;50.926;7.080;2024-02-21T05:15:57;8.60;96.50
10133;DHT22;5106;50.926;7.080;2024-02-21T05:18:27;8.60;96.50
10133;DHT22;5106;50.926;7.080;2024-02-21T05:20:53;8.60;96.50
10133;DHT22;5106;50.926;7.080;2024-02-21T05:23:19;8.60;96.50
10133;DHT22;5106;50.926;7.080;2024-02-21T05:25:44;8.60;96.50
10133;DHT22;5106;50.926;7.080;2024-02-21T05:28:10;8.60;96.50
10133;DHT22;5106;50.926;7.080;2024-02-21T05:30:35;8.60;96.50
10133;DHT22;5106;50.926;7.080;2024-02-21T05:33:05;8.60;96.50
10133;DHT22;5106;50.926;7.080;2024-02-21T05:35:31;8.60;96.50
10133;DHT22;5106;50.926;7.080;2024-02-21T05:37:56;8.60;96.50
10133;DHT22;5106;50.926;7.080;2024-02-21T05:40:22;8.60;96.50
10133;DHT22;5106;50.926;7.080;2024-02-21T05:42:48;8.50;96.50
10133;DHT22;5106;50.926;7.080;2024-02-21T05:45:14;8.60;96.50
10133;DHT22;5106;50.926;7.080;2024-02-21T05:47:41;8.60;96.50
10133;DHT22;5106;50.926;7.080;2024-02-21T05:50:07;8.60;96.50
10133;DHT22;5106;50.926;7.080;2024-02-21T05:52:32;8.60;96.50
10133;DHT22;5106;50.926;7.080;2024-02-21T05:54:58;8.60;96.50
10133;DHT22;5106;50.926;7.080;2024-02-21T05:57:24;8.60;96.50
10133;DHT22;5106;50.926;7.080;2024-02-21T05:59:49;8.50;96.50
10133;DHT22;5106;50.926;7.080;2024-02-21T06:02:15;8.50;96.50
10133;DHT22;5106;50.926;7.080;2024-02-21T06:04:41;8.50;96.50
10133;DHT22;5106;50.926;7.080;2024-02-21T06:07:08;8.50;96.50
10133;DHT22;5106;50.926;7.080;2024-02-21T06:09:34;8.50;96.50
10133;DHT22;5106;50.926;7.080;2024-02-21T06:11:59;8.50;96.50
10133;DHT22;5106;50.926;7.080;2024-02-21T06:14:25;8.50;96.50
10133;DHT22;5106;50.926;7.080;2024-02-21T06:16:50;8.50;96.50
10133;DHT22;5106;50.926;7.080;2024-02-21T06:19:16;8.50;96.50
10133;DHT22;5106;50.926;7.080;2024-02-21T06:21:42;8.50;96.50
10133;DHT22;5106;50.926;7.080;2024-02-21T06:24:07;8.50;96.50
10133;DHT22;5106;50.926;7.080;2024-02-21T06:26:33;8.50;96.50
10133;DHT22;5106;50.926;7.080;2024-02-21T06:28:58;8.50;96.50
10133;DHT22;5106;50.926;7.080;2024-02-21T06:31:27;8.50;96.50
10133;DHT22;5106;50.926;7.080;2024-02-21T06:33:53;8.50;96.50
10133;DHT22;5106;50.926;7.080;2024-02-21T06:36:18;8.50;96.50
10133;DHT22;5106;50.926;7.080;2024-02-21T06:38:44;8.50;96.50
10133;DHT22;5106;50.926;7.080;2024-02-21T06:41:17;8.50;96.50
10133;DHT22;5106;50.926;7.080;2024-02-21T06:43:44;8.50;96.50
10133;DHT22;5106;50.926;7.080;2024-02-21T06:46:11;8.50;96.50
10133;DHT22;5106;50.926;7.080;2024-02-21T06:48:36;8.50;96.50
10133;DHT22;5106;50.926;7.080;2024-02-21T06:51:02;8.50;96.50
10133;DHT22;5106;50.926;7.080;2024-02-21T06:53:28;8.50;96.50
10133;DHT22;5106;50.926;7.080;2024-02-21T06:55:54;8.50;96.50
10133;DHT22;5106;50.926;7.080;2024-02-21T06:58:19;8.50;96.50
10133;DHT22;5106;50.926;7.080;2024-02-21T07:00:45;8.60;96.50
10133;DHT22;5106;50.926;7.080;2024-02-21T07:03:10;8.60;96.50
10133;DHT22;5106;50.926;7.080;2024-02-21T07:05:36;8.60;96.50
10133;DHT22;5106;50.926;7.080;2024-02-21T07:08:02;8.60;96.50
10133;DHT22;5106;50.926;7.080;2024-02-21T07:10:28;8.60;96.50
10133;DHT22;5106;50.926;7.080;2024-02-21T07:12:55;8.60;96.50
10133;DHT22;5106;50.926;7.080;2024-02-21T07:15:21;8.60;96.50
10133;DHT22;5106;50.926;7.080;2024-02-21T07:17:46;8.70;96.50
10133;DHT22;5106;50.926;7.080;2024-02-21T07:20:12;8.70;96.50
10133;DHT22;5106;50.926;7.080;2024-02-21T07:22:37;8.70;96.50
10133;DHT22;5106;50.926;7.080;2024-02-21T07:25:03;8.70;96.50
10133;DHT22;5106;50.926;7.080;2024-02-21T07:27:29;8.70;96.50
10133;DHT22;5106;50.926;7.080;2024-02-21T07:29:57;8.70;96.50
10133;DHT22;5106;50.926;7.080;2024-02-21T07:32:22;8.70;96.50
10133;DHT22;5106;50.926;7.080;2024-02-21T07:34:48;8.70;96.50
10133;DHT22;5106;50.926;7.080;2024-02-21T07:37:14;8.70;96.50
10133;DHT22;5106;50.926;7.080;2024-02-21T07:39:39;8.70;96.50
10133;DHT22;5106;50.926;7.080;2024-02-21T07:42:05;8.80;96.50
10133;DHT22;5106;50.926;7.080;2024-02-21T07:44:31;8.80;96.50
10133;DHT22;5106;50.926;7.080;2024-02-21T07:46:58;8.70;96.50
10133;DHT22;5106;50.926;7.080;2024-02-21T07:49:24;8.70;96.50
10133;DHT22;5106;50.926;7.080;2024-02-21T07:51:50;8.80;96.50
10133;DHT22;5106;50.926;7.080;2024-02-21T07:54:15;8.80;96.50
10133;DHT22;5106;50.926;7.080;2024-02-21T07:56:41;8.80;96.50
10133;DHT22;5106;50.926;7.080;2024-02-21T07:59:07;8.80;96.50
10133;DHT22;5106;50.926;7.080;2024-02-21T08:01:33;8.80;96.50
10133;DHT22;5106;50.926;7.080;2024-02-21T08:03:58;8.80;96.50
10133;DHT22;5106;50.926;7.080;2024-02-21T08:06:24;8.80;96.50
10133;DHT22;5106;50.926;7.080;2024-02-21T08:08:50;8.80;96.50
10133;DHT22;5106;50.926;7.080;2024-02-21T08:11:16;8.80;96.50
10133;DHT22;5106;50.926;7.080;2024-02-21T08:13:41;8.80;96.50
10133;DHT22;5106;50.926;7.080;2024-02-21T08:16:07;8.80;96.50
10133;DHT22;5106;50.926;7.080;2024-02-21T08:18:32;8.80;96.50
10133;DHT22;5106;50.926;7.080;2024-02-21T08:21:03;8.80;96.50
10133;DHT22;5106;50.926;7.080;2024-02-21T08:23:28;8.80;96.50
10133;DHT22;5106;50.926;7.080;2024-02-21T08:26:02;8.90;96.50
10133;DHT22;5106;50.926;7.080;2024-02-21T08:28:28;8.90;96.50
10133;DHT22;5106;50.926;7.080;2024-02-21T08:30:53;8.90;96.50
10133;DHT22;5106;50.926;7.080;2024-02-21T08:33:19;8.90;96.50
10133;DHT22;5106;50.926;7.080;2024-02-21T08:35:49;8.90;96.50
10133;DHT22;5106;50.926;7.080;2024-02-21T08:38:15;8.90;96.50
10133;DHT22;5106;50.926;7.080;2024-02-21T08:40:41;9.00;96.50
10133;DHT22;5106;50.926;7.080;2024-02-21T08:43:06;9.00;96.50
10133;DHT22;5106;50.926;7.080;2024-02-21T08:45:32;9.10;96.50
10133;DHT22;5106;50.926;7.080;2024-02-21T08:47:57;9.10;96.50
10133;DHT22;5106;50.926;7.080;2024-02-21T08:50:23;9.20;96.50
10133;DHT22;5106;50.926;7.080;2024-02-21T08:52:48;9.20;96.50
10133;DHT22;5106;50.926;7.080;2024-02-21T08:55:14;9.20;96.50
10133;DHT22;5106;50.926;7.080;2024-02-21T08:57:39;9.30;96.50
10133;DHT22;5106;50.926;7.080;2024-02-21T09:00:06;9.30;96.50
10133;DHT22;5106;50.926;7.080;2024-02-21T09:02:40;9.30;96.50
10133;DHT22;5106;50.926;7.080;2024-02-21T09:05:06;9.30;96.50
10133;DHT22;5106;50.926;7.080;2024-02-21T09:07:32;9.40;96.50
10133;DHT22;5106;50.926;7.080;2024-02-21T09:09:57;9.40;96.50
10133;DHT22;5106;50.926;7.080;2024-02-21T09:12:23;9.50;96.50
10133;DHT22;5106;50.926;7.080;2024-02-21T09:14:49;9.50;96.50
10133;DHT22;5106;50.926;7.080;2024-02-21T09:17:16;9.60;96.50
10133;DHT22;5106;50.926;7.080;2024-02-21T09:19:50;9.70;96.50
10133;DHT22;5106;50.926;7.080;2024-02-21T09:22:15;9.70;96.50
10133;DHT22;5106;50.926;7.080;2024-02-21T09:24:41;9.80;96.50
10133;DHT22;5106;50.926;7.080;2024-02-21T09:27:07;9.90;96.50
10133;DHT22;5106;50.926;7.080;2024-02-21T09:29:32;9.90;96.50
10133;DHT22;5106;50.926;7.080;2024-02-21T09:32:01;10.00;96.50
10133;DHT22;5106;50.926;7.080;2024-02-21T09:34:28;10.00;96.50
10133;DHT22;5106;50.926;7.080;2024-02-21T09:36:53;10.00;96.50
10133;DHT22;5106;50.926;7.080;2024-02-21T09:39:19;10.00;96.50
10133;DHT22;5106;50.926;7.080;2024-02-21T09:41:50;10.00;96.50
10133;DHT22;5106;50.926;7.080;2024-02-21T09:44:21;10.00;96.50
10133;DHT22;5106;50.926;7.080;2024-02-21T09:46:55;10.00;96.50
10133;DHT22;5106;50.926;7.080;2024-02-21T09:49:33;10.00;96.50
10133;DHT22;5106;50.926;7.080;2024-02-21T09:52:01;10.00;96.50
10133;DHT22;5106;50.926;7.080;2024-02-21T09:54:30;10.00;96.50
10133;DHT22;5106;50.926;7.080;2024-02-21T09:56:56;10.00;96.50
10133;DHT22;5106;50.926;7.080;2024-02-21T09:59:22;10.10;96.50
10133;DHT22;5106;50.926;7.080;2024-02-21T10:01:49;10.10;96.50
10133;DHT22;5106;50.926;7.080;2024-02-21T10:04:16;10.20;96.50
10133;DHT22;5106;50.926;7.080;2024-02-21T10:06:42;10.20;96.50
10133;DHT22;5106;50.926;7.080;2024-02-21T10:09:08;10.30;96.50
10133;DHT22;5106;50.926;7.080;2024-02-21T10:11:34;10.40;96.50
10133;DHT22;5106;50.926;7.080;2024-02-21T10:14:06;10.40;96.50
10133;DHT22;5106;50.926;7.080;2024-02-21T10:16:32;10.50;96.50
10133;DHT22;5106;50.926;7.080;2024-02-21T10:18:58;10.60;96.50
10133;DHT22;5106;50.926;7.080;2024-02-21T10:21:24;10.60;96.50
10133;DHT22;5106;50.926;7.080;2024-02-21T10:23:51;10.70;96.50
10133;DHT22;5106;50.926;7.080;2024-02-21T10:26:20;10.70;96.50
10133;DHT22;5106;50.926;7.080;2024-02-21T10:28:47;10.80;96.50
10133;DHT22;5106;50.926;7.080;2024-02-21T10:31:27;10.80;96.50
10133;DHT22;5106;50.926;7.080;2024-02-21T10:34:01;10.80;96.50
10133;DHT22;5106;50.926;7.080;2024-02-21T10:36:31;10.80;96.50
10133;DHT22;5106;50.926;7.080;2024-02-21T10:38:56;10.90;96.50
10133;DHT22;5106;50.926;7.080;2024-02-21T10:41:23;10.90;96.50
10133;DHT22;5106;50.926;7.080;2024-02-21T10:43:50;10.90;96.50
10133;DHT22;5106;50.926;7.080;2024-02-21T10:46:20;11.00;96.50
10133;DHT22;5106;50.926;7.080;2024-02-21T10:48:47;11.00;96.50
10133;DHT22;5106;50.926;7.080;2024-02-21T10:56:32;11.20;96.50
10133;DHT22;5106;50.926;7.080;2024-02-21T10:59:03;11.30;96.50
10133;DHT22;5106;50.926;7.080;2024-02-21T11:01:29;11.30;96.50
10133;DHT22;5106;50.926;7.080;2024-02-21T11:03:59;11.30;96.50
10133;DHT22;5106;50.926;7.080;2024-02-21T11:06:26;11.40;96.50
10133;DHT22;5106;50.926;7.080;2024-02-21T11:09:10;11.40;96.50
10133;DHT22;5106;50.926;7.080;2024-02-21T11:11:41;11.50;96.50
10133;DHT22;5106;50.926;7.080;2024-02-21T11:14:11;11.60;96.50
10133;DHT22;5106;50.926;7.080;2024-02-21T11:16:38;11.70;96.50
10133;DHT22;5106;50.926;7.080;2024-02-21T11:19:21;11.80;96.50
10133;DHT22;5106;50.926;7.080;2024-02-21T11:21:48;11.80;96.50
10133;DHT22;5106;50.926;7.080;2024-02-21T11:24:14;11.80;96.50
10133;DHT22;5106;50.926;7.080;2024-02-21T11:26:40;11.80;96.50
10133;DHT22;5106;50.926;7.080;2024-02-21T11:29:08;11.80;96.50
10133;DHT22;5106;50.926;7.080;2024-02-21T11:31:43;11.90;96.50
10133;DHT22;5106;50.926;7.080;2024-02-21T11:34:12;11.90;96.50
10133;DHT22;5106;50.926;7.080;2024-02-21T11:36:51;12.00;96.50
10133;DHT22;5106;50.926;7.080;2024-02-21T11:39:25;12.00;96.50
10133;DHT22;5106;50.926;7.080;2024-02-21T11:42:04;12.10;96.50
10133;DHT22;5106;50.926;7.080;2024-02-21T11:44:30;12.10;96.50
10133;DHT22;5106;50.926;7.080;2024-02-21T11:46:56;12.20;96.50
10133;DHT22;5106;50.926;7.080;2024-02-21T11:49:25;12.20;96.50
10133;DHT22;5106;50.926;7.080;2024-02-21T11:51:58;12.20;96.50
10133;DHT22;5106;50.926;7.080;2024-02-21T11:54:24;12.20;96.50
10133;DHT22;5106;50.926;7.080;2024-02-21T11:56:50;12.20;96.50
10133;DHT22;5106;50.926;7.080;2024-02-21T11:59:15;12.10;96.50
10133;DHT22;5106;50.926;7.080;2024-02-21T12:01:42;12.10;96.50
10133;DHT22;5106;50.926;7.080;2024-02-21T12:04:08;12.10;96.50
10133;DHT22;5106;50.926;7.080;2024-02-21T12:06:33;12.10;96.50
10133;DHT22;5106;50.926;7.080;2024-02-21T12:08:59;12.10;96.50
10133;DHT22;5106;50.926;7.080;2024-02-21T12:11:25;12.10;96.50
10133;DHT22;5106;50.926;7.080;2024-02-21T12:14:03;12.10;96.50
10133;DHT22;5106;50.926;7.080;2024-02-21T12:16:31;12.00;96.50
10133;DHT22;5106;50.926;7.080;2024-02-21T12:19:01;12.00;96.50
10133;DHT22;5106;50.926;7.080;2024-02-21T12:21:30;12.00;96.50
10133;DHT22;5106;50.926;7.080;2024-02-21T12:23:58;11.90;96.50
10133;DHT22;5106;50.926;7.080;2024-02-21T12:26:24;11.90;96.50
10133;DHT22;5106;50.926;7.080;2024-02-21T12:28:50;11.90;96.50
10133;DHT22;5106;50.926;7.080;2024-02-21T12:31:16;11.90;96.50
10133;DHT22;5106;50.926;7.080;2024-02-21T12:33:43;11.90;96.50
10133;DHT22;5106;50.926;7.080;2024-02-21T12:36:08;11.90;96.50
10133;DHT22;5106;50.926;7.080;2024-02-21T12:38:35;11.90;96.50
10133;DHT22;5106;50.926;7.080;2024-02-21T12:41:01;11.90;96.50
10133;DHT22;5106;50.926;7.080;2024-02-21T12:43:26;11.90;96.50
10133;DHT22;5106;50.926;7.080;2024-02-21T12:45:52;12.00;96.50
10133;DHT22;5106;50.926;7.080;2024-02-21T12:48:18;12.10;96.50
10133;DHT22;5106;50.926;7.080;2024-02-21T12:50:49;12.10;96.50
10133;DHT22;5106;50.926;7.080;2024-02-21T12:53:18;12.10;96.50
10133;DHT22;5106;50.926;7.080;2024-02-21T12:55:47;12.10;96.50
10133;DHT22;5106;50.926;7.080;2024-02-21T12:58:14;12.10;96.50
10133;DHT22;5106;50.926;7.080;2024-02-21T13:00:40;12.20;96.50
10133;DHT22;5106;50.926;7.080;2024-02-21T13:03:05;12.20;96.50
10133;DHT22;5106;50.926;7.080;2024-02-21T13:05:31;12.30;96.50
10133;DHT22;5106;50.926;7.080;2024-02-21T13:08:00;12.30;96.50
10133;DHT22;5106;50.926;7.080;2024-02-21T13:10:26;12.30;96.50
10133;DHT22;5106;50.926;7.080;2024-02-21T13:12:51;12.30;96.50
10133;DHT22;5106;50.926;7.080;2024-02-21T13:15:17;12.30;96.50
10133;DHT22;5106;50.926;7.080;2024-02-21T13:17:46;12.40;96.50
10133;DHT22;5106;50.926;7.080;2024-02-21T13:20:12;12.40;96.50
10133;DHT22;5106;50.926;7.080;2024-02-21T13:22:37;12.40;96.50
10133;DHT22;5106;50.926;7.080;2024-02-21T13:25:04;12.30;96.50
10133;DHT22;5106;50.926;7.080;2024-02-21T13:27:33;12.40;96.50
10133;DHT22;5106;50.926;7.080;2024-02-21T13:30:01;12.40;96.50
10133;DHT22;5106;50.926;7.080;2024-02-21T13:32:31;12.30;96.50
10133;DHT22;5106;50.926;7.080;2024-02-21T13:34:57;12.30;96.50
10133;DHT22;5106;50.926;7.080;2024-02-21T13:37:26;12.30;96.50
10133;DHT22;5106;50.926;7.080;2024-02-21T13:39:52;12.30;96.50
10133;DHT22;5106;50.926;7.080;2024-02-21T13:42:18;12.30;96.50
10133;DHT22;5106;50.926;7.080;2024-02-21T13:44:44;12.30;96.50
10133;DHT22;5106;50.926;7.080;2024-02-21T13:47:11;12.30;96.50
10133;DHT22;5106;50.926;7.080;2024-02-21T13:49:38;12.30;96.50
10133;DHT22;5106;50.926;7.080;2024-02-21T13:52:04;12.30;96.50
10133;DHT22;5106;50.926;7.080;2024-02-21T13:54:30;12.20;96.50
10133;DHT22;5106;50.926;7.080;2024-02-21T13:56:56;12.20;96.50
10133;DHT22;5106;50.926;7.080;2024-02-21T13:59:21;12.10;96.50
10133;DHT22;5106;50.926;7.080;2024-02-21T14:01:47;12.10;96.50
10133;DHT22;5106;50.926;7.080;2024-02-21T14:04:12;12.10;96.50
10133;DHT22;5106;50.926;7.080;2024-02-21T14:06:38;12.00;96.50
10133;DHT22;5106;50.926;7.080;2024-02-21T14:09:09;12.00;96.50
10133;DHT22;5106;50.926;7.080;2024-02-21T14:11:35;12.00;96.50
10133;DHT22;5106;50.926;7.080;2024-02-21T14:14:00;11.90;96.50
10133;DHT22;5106;50.926;7.080;2024-02-21T14:16:26;11.90;96.50
10133;DHT22;5106;50.926;7.080;2024-02-21T14:18:51;11.90;96.50
10133;DHT22;5106;50.926;7.080;2024-02-21T14:21:17;11.90;96.50
10133;DHT22;5106;50.926;7.080;2024-02-21T14:23:42;11.90;96.50
10133;DHT22;5106;50.926;7.080;2024-02-21T14:26:08;11.90;96.50
10133;DHT22;5106;50.926;7.080;2024-02-21T14:28:34;11.90;96.50
10133;DHT22;5106;50.926;7.080;2024-02-21T14:31:00;11.90;96.50
10133;DHT22;5106;50.926;7.080;2024-02-21T14:33:29;11.90;96.50
10133;DHT22;5106;50.926;7.080;2024-02-21T14:35:56;11.90;96.50
10133;DHT22;5106;50.926;7.080;2024-02-21T14:38:22;11.90;96.50
10133;DHT22;5106;50.926;7.080;2024-02-21T14:40:48;11.80;96.50
10133;DHT22;5106;50.926;7.080;2024-02-21T14:43:13;11.80;96.50
10133;DHT22;5106;50.926;7.080;2024-02-21T14:45:39;11.80;96.50
10133;DHT22;5106;50.926;7.080;2024-02-21T14:48:05;11.80;96.50
10133;DHT22;5106;50.926;7.080;2024-02-21T14:50:31;11.80;96.50
10133;DHT22;5106;50.926;7.080;2024-02-21T14:52:57;11.70;96.50
10133;DHT22;5106;50.926;7.080;2024-02-21T14:55:22;11.70;96.50
10133;DHT22;5106;50.926;7.080;2024-02-21T14:57:49;11.80;96.50
10133;DHT22;5106;50.926;7.080;2024-02-21T15:00:15;11.80;96.50
10133;DHT22;5106;50.926;7.080;2024-02-21T15:02:41;11.70;96.50
10133;DHT22;5106;50.926;7.080;2024-02-21T15:05:08;11.70;96.50
10133;DHT22;5106;50.926;7.080;2024-02-21T15:07:34;11.70;96.50
10133;DHT22;5106;50.926;7.080;2024-02-21T15:10:00;11.70;96.50
10133;DHT22;5106;50.926;7.080;2024-02-21T15:12:26;11.70;96.50
10133;DHT22;5106;50.926;7.080;2024-02-21T15:14:51;11.70;96.50
10133;DHT22;5106;50.926;7.080;2024-02-21T15:17:17;11.70;96.50
10133;DHT22;5106;50.926;7.080;2024-02-21T15:19:44;11.60;96.50
10133;DHT22;5106;50.926;7.080;2024-02-21T15:22:13;11.60;96.50
10133;DHT22;5106;50.926;7.080;2024-02-21T15:24:40;11.60;96.50
10133;DHT22;5106;50.926;7.080;2024-02-21T15:27:06;11.60;96.50
10133;DHT22;5106;50.926;7.080;2024-02-21T15:29:32;11.60;96.50
10133;DHT22;5106;50.926;7.080;2024-02-21T15:31:57;11.60;96.50
10133;DHT22;5106;50.926;7.080;2024-02-21T15:34:23;11.60;96.50
10133;DHT22;5106;50.926;7.080;2024-02-21T15:36:49;11.50;96.50
10133;DHT22;5106;50.926;7.080;2024-02-21T15:39:14;11.50;96.50
10133;DHT22;5106;50.926;7.080;2024-02-21T15:41:40;11.50;96.50
10133;DHT22;5106;50.926;7.080;2024-02-21T15:44:06;11.50;96.50
10133;DHT22;5106;50.926;7.080;2024-02-21T15:46:32;11.40;96.50
10133;DHT22;5106;50.926;7.080;2024-02-21T15:49:00;11.40;96.50
10133;DHT22;5106;50.926;7.080;2024-02-21T15:51:25;11.40;96.50
10133;DHT22;5106;50.926;7.080;2024-02-21T15:53:51;11.40;96.50
10133;DHT22;5106;50.926;7.080;2024-02-21T15:56:17;11.40;96.50